sensor_id;sensor_type;location;lat;lon;timestamp;pressure;altitude;pressure_sealevel;temperature;humidity
70015;BME280;57358;51.094;6.760;2023-02-10T00:00:35;103221.13;;;2.38;100.00
70015;BME280;57358;51.094;6.760;2023-02-10T00:03:02;103227.22;;;2.39;100.00
70015;BME280;57358;51.094;6.760;2023-02-10T00:05:28;103148.50;;;1.96;100.00
70015;BME280;57358;51.094;6.760;2023-02-10T00:07:55;103218.59;;;2.40;100.00
70015;BME280;57358;51.094;6.760;2023-02-10T00:10:22;103220.31;;;2.39;100.00
70015;BME280;57358;51.094;6.760;2023-02-10T00:12:49;103220.22;;;2.36;100.00
70015;BME280;57358;51.094;6.760;2023-02-10T00:15:15;103217.69;;;2.38;100.00
70015;BME280;57358;51.094;6.760;2023-02-10T00:17:42;103192.34;;;2.26;100.00
70015;BME280;57358;51.094;6.760;2023-02-10T00:20:08;103202.09;;;2.36;100.00
70015;BME280;57358;51.094;6.760;2023-02-10T00:22:35;103215.00;;;2.33;100.00
70015;BME280;57358;51.094;6.760;2023-02-10T00:25:02;103214.03;;;2.30;100.00
70015;BME280;57358;51.094;6.760;2023-02-10T00:27:29;103207.81;;;2.22;100.00
70015;BME280;57358;51.094;6.760;2023-02-10T00:29:55;103207.91;;;2.25;100.00
70015;BME280;57358;51.094;6.760;2023-02-10T00:32:22;103181.53;;;2.05;100.00
70015;BME280;57358;51.094;6.760;2023-02-10T00:34:48;103142.09;;;1.80;100.00
70015;BME280;57358;51.094;6.760;2023-02-10T00:37:15;103165.03;;;2.01;100.00
70015;BME280;57358;51.094;6.760;2023-02-10T00:39:41;103214.84;;;2.27;100.00
70015;BME280;57358;51.094;6.760;2023-02-10T00:42:08;103211.41;;;2.28;100.00
70015;BME280;57358;51.094;6.760;2023-02-10T00:44:34;103192.25;;;2.22;100.00
70015;BME280;57358;51.094;6.760;2023-02-10T00:47:01;103221.13;;;2.38;100.00
70015;BME280;57358;51.094;6.760;2023-02-10T00:49:27;103175.69;;;2.13;100.00
70015;BME280;57358;51.094;6.760;2023-02-10T00:51:54;103216.81;;;2.37;100.00
70015;BME280;57358;51.094;6.760;2023-02-10T00:54:20;103177.28;;;2.08;100.00
70015;BME280;57358;51.094;6.760;2023-02-10T00:56:47;103187.03;;;2.20;100.00
70015;BME280;57358;51.094;6.760;2023-02-10T00:59:13;103161.03;;;2.15;100.00
70015;BME280;57358;51.094;6.760;2023-02-10T01:01:41;103208.34;;;2.45;100.00
70015;BME280;57358;51.094;6.760;2023-02-10T01:04:08;103195.22;;;2.38;100.00
70015;BME280;57358;51.094;6.760;2023-02-10T01:06:34;103209.16;;;2.44;100.00
70015;BME280;57358;51.094;6.760;2023-02-10T01:09:01;103211.72;;;2.42;100.00
70015;BME280;57358;51.094;6.760;2023-02-10T01:11:30;103215.22;;;2.43;100.00
70015;BME280;57358;51.094;6.760;2023-02-10T01:13:56;103167.00;;;2.11;100.00
70015;BME280;57358;51.094;6.760;2023-02-10T01:16:23;103171.31;;;2.11;100.00
70015;BME280;57358;51.094;6.760;2023-02-10T01:18:49;103195.72;;;2.22;100.00
70015;BME280;57358;51.094;6.760;2023-02-10T01:21:18;103190.44;;;2.17;100.00
70015;BME280;57358;51.094;6.760;2023-02-10T01:23:46;103227.13;;;2.36;100.00
70015;BME280;57358;51.094;6.760;2023-02-10T01:26:13;103145.72;;;1.88;100.00
70015;BME280;57358;51.094;6.760;2023-02-10T01:28:40;103234.94;;;2.37;100.00
70015;BME280;57358;51.094;6.760;2023-02-10T01:31:09;103239.25;;;2.37;100.00
70015;BME280;57358;51.094;6.760;2023-02-10T01:33:36;103218.41;;;2.31;100.00
70015;BME280;57358;51.094;6.760;2023-02-10T01:36:08;103228.00;;;2.36;100.00
70015;BME280;57358;51.094;6.760;2023-02-10T01:38:35;102938.38;;;0.64;100.00
70015;BME280;57358;51.094;6.760;2023-02-10T01:41:02;103182.41;;;2.05;100.00
70015;BME280;57358;51.094;6.760;2023-02-10T01:43:29;103225.22;;;2.27;100.00
70015;BME280;57358;51.094;6.760;2023-02-10T01:45:56;103217.16;;;2.15;100.00
70015;BME280;57358;51.094;6.760;2023-02-10T01:48:23;103187.16;;;1.87;100.00
70015;BME280;57358;51.094;6.760;2023-02-10T01:50:57;103144.00;;;1.52;100.00
70015;BME280;57358;51.094;6.760;2023-02-10T01:53:25;103031.78;;;0.77;100.00
70015;BME280;57358;51.094;6.760;2023-02-10T01:55:54;103228.72;;;1.93;100.00
70015;BME280;57358;51.094;6.760;2023-02-10T01:58:25;103225.22;;;1.91;100.00
70015;BME280;57358;51.094;6.760;2023-02-10T02:00:52;103230.34;;;1.89;100.00
70015;BME280;57358;51.094;6.760;2023-02-10T02:03:21;103168.16;;;1.51;100.00
70015;BME280;57358;51.094;6.760;2023-02-10T02:05:48;103229.97;;;1.74;100.00
70015;BME280;57358;51.094;6.760;2023-02-10T02:08:25;103232.75;;;1.82;100.00
70015;BME280;57358;51.094;6.760;2023-02-10T02:16:14;103232.56;;;1.74;100.00
70015;BME280;57358;51.094;6.760;2023-02-10T02:18:52;103146.69;;;1.22;100.00
70015;BME280;57358;51.094;6.760;2023-02-10T02:21:45;103240.41;;;1.77;100.00
70015;BME280;57358;51.094;6.760;2023-02-10T02:24:29;103247.22;;;1.73;100.00
70015;BME280;57358;51.094;6.760;2023-02-10T02:34:52;103237.06;;;1.81;100.00
70015;BME280;57358;51.094;6.760;2023-02-10T02:37:33;103216.09;;;1.72;100.00
70015;BME280;57358;51.094;6.760;2023-02-10T02:40:02;103073.59;;;0.94;100.00
70015;BME280;57358;51.094;6.760;2023-02-10T02:42:32;103234.78;;;1.93;100.00
70015;BME280;57358;51.094;6.760;2023-02-10T02:45:03;103190.94;;;1.66;100.00
70015;BME280;57358;51.094;6.760;2023-02-10T02:50:13;103235.53;;;1.89;100.00
70015;BME280;57358;51.094;6.760;2023-02-10T02:52:48;103226.91;;;1.89;100.00
70015;BME280;57358;51.094;6.760;2023-02-10T02:55:35;103232.91;;;1.88;100.00
70015;BME280;57358;51.094;6.760;2023-02-10T02:58:15;103235.44;;;1.86;100.00
70015;BME280;57358;51.094;6.760;2023-02-10T03:00:44;103051.59;;;0.77;100.00
70015;BME280;57358;51.094;6.760;2023-02-10T03:03:12;103230.22;;;1.83;100.00
70015;BME280;57358;51.094;6.760;2023-02-10T03:05:38;103241.38;;;1.82;100.00
70015;BME280;57358;51.094;6.760;2023-02-10T03:08:05;103167.75;;;1.36;100.00
70015;BME280;57358;51.094;6.760;2023-02-10T03:10:32;103215.00;;;1.62;100.00
70015;BME280;57358;51.094;6.760;2023-02-10T03:12:58;103172.81;;;1.31;100.00
70015;BME280;57358;51.094;6.760;2023-02-10T03:15:25;103232.25;;;1.62;100.00
70015;BME280;57358;51.094;6.760;2023-02-10T03:17:51;103133.16;;;0.99;100.00
70015;BME280;57358;51.094;6.760;2023-02-10T03:20:18;103224.22;;;1.51;100.00
70015;BME280;57358;51.094;6.760;2023-02-10T03:22:44;103156.50;;;1.02;100.00
70015;BME280;57358;51.094;6.760;2023-02-10T03:25:11;103170.19;;;0.98;100.00
70015;BME280;57358;51.094;6.760;2023-02-10T03:27:40;103221.84;;;1.27;100.00
70015;BME280;57358;51.094;6.760;2023-02-10T03:30:07;103210.31;;;1.15;100.00
70015;BME280;57358;51.094;6.760;2023-02-10T03:32:33;103152.38;;;0.77;100.00
70015;BME280;57358;51.094;6.760;2023-02-10T03:35:00;103219.69;;;1.12;100.00
70015;BME280;57358;51.094;6.760;2023-02-10T03:37:27;103089.72;;;0.24;100.00
70015;BME280;57358;51.094;6.760;2023-02-10T03:39:53;103133.59;;;0.52;100.00
70015;BME280;57358;51.094;6.760;2023-02-10T03:42:20;103166.84;;;0.70;100.00
70015;BME280;57358;51.094;6.760;2023-02-10T03:44:46;103119.72;;;0.49;100.00
70015;BME280;57358;51.094;6.760;2023-02-10T03:47:13;103178.47;;;0.86;100.00
70015;BME280;57358;51.094;6.760;2023-02-10T03:49:39;103149.88;;;0.80;100.00
70015;BME280;57358;51.094;6.760;2023-02-10T03:52:05;103164.72;;;0.87;100.00
70015;BME280;57358;51.094;6.760;2023-02-10T03:54:32;103158.69;;;0.87;100.00
70015;BME280;57358;51.094;6.760;2023-02-10T03:57:00;103017.63;;;0.01;100.00
70015;BME280;57358;51.094;6.760;2023-02-10T03:59:26;103185.28;;;0.83;100.00
70015;BME280;57358;51.094;6.760;2023-02-10T04:01:53;103116.00;;;0.39;100.00
70015;BME280;57358;51.094;6.760;2023-02-10T04:04:20;103180.03;;;0.79;100.00
70015;BME280;57358;51.094;6.760;2023-02-10T04:06:46;103151.16;;;0.64;100.00
70015;BME280;57358;51.094;6.760;2023-02-10T04:09:15;103132.53;;;0.44;100.00
70015;BME280;57358;51.094;6.760;2023-02-10T04:11:41;103164.44;;;0.46;100.00
70015;BME280;57358;51.094;6.760;2023-02-10T04:14:08;103177.31;;;0.45;100.00
70015;BME280;57358;51.094;6.760;2023-02-10T04:16:34;103194.47;;;0.43;100.00
70015;BME280;57358;51.094;6.760;2023-02-10T04:19:02;103196.88;;;0.36;100.00
70015;BME280;57358;51.094;6.760;2023-02-10T04:21:28;103189.59;;;0.25;100.00
70015;BME280;57358;51.094;6.760;2023-02-10T04:23:57;103195.47;;;0.19;100.00
70015;BME280;57358;51.094;6.760;2023-02-10T04:26:24;103196.13;;;0.13;100.00
70015;BME280;57358;51.094;6.760;2023-02-10T04:28:50;103127.63;;;-0.31;100.00
70015;BME280;57358;51.094;6.760;2023-02-10T04:31:17;103119.50;;;-0.44;100.00
70015;BME280;57358;51.094;6.760;2023-02-10T04:33:44;103192.84;;;-0.10;100.00
70015;BME280;57358;51.094;6.760;2023-02-10T04:36:11;103126.72;;;-0.59;100.00
70015;BME280;57358;51.094;6.760;2023-02-10T04:38:37;103194.78;;;-0.30;100.00
70015;BME280;57358;51.094;6.760;2023-02-10T04:41:04;102938.03;;;-1.78;100.00
70015;BME280;57358;51.094;6.760;2023-02-10T04:43:32;103151.59;;;-0.61;100.00
70015;BME280;57358;51.094;6.760;2023-02-10T04:46:01;103183.94;;;-0.45;100.00
70015;BME280;57358;51.094;6.760;2023-02-10T04:48:30;103159.31;;;-0.61;100.00
70015;BME280;57358;51.094;6.760;2023-02-10T04:50:57;103140.03;;;-0.72;100.00
70015;BME280;57358;51.094;6.760;2023-02-10T04:53:23;103167.72;;;-0.67;100.00
70015;BME280;57358;51.094;6.760;2023-02-10T04:55:50;103202.84;;;-0.45;100.00
70015;BME280;57358;51.094;6.760;2023-02-10T04:58:17;103202.03;;;-0.44;100.00
70015;BME280;57358;51.094;6.760;2023-02-10T05:00:43;103204.84;;;-0.37;100.00
70015;BME280;57358;51.094;6.760;2023-02-10T05:03:10;103187.09;;;-0.54;100.00
70015;BME280;57358;51.094;6.760;2023-02-10T05:05:36;103205.84;;;-0.32;100.00
70015;BME280;57358;51.094;6.760;2023-02-10T05:08:02;103202.47;;;-0.31;100.00
70015;BME280;57358;51.094;6.760;2023-02-10T05:10:29;103163.50;;;-0.65;100.00
70015;BME280;57358;51.094;6.760;2023-02-10T05:12:55;103124.88;;;-0.89;100.00
70015;BME280;57358;51.094;6.760;2023-02-10T05:15:22;103197.63;;;-0.46;100.00
70015;BME280;57358;51.094;6.760;2023-02-10T05:17:48;103144.09;;;-0.79;100.00
70015;BME280;57358;51.094;6.760;2023-02-10T05:20:15;103170.56;;;-0.59;100.00
70015;BME280;57358;51.094;6.760;2023-02-10T05:22:41;103149.19;;;-0.81;100.00
70015;BME280;57358;51.094;6.760;2023-02-10T05:25:11;103186.88;;;-0.60;100.00
70015;BME280;57358;51.094;6.760;2023-02-10T05:27:37;103155.47;;;-0.74;100.00
70015;BME280;57358;51.094;6.760;2023-02-10T05:30:06;103094.16;;;-1.08;100.00
70015;BME280;57358;51.094;6.760;2023-02-10T05:32:33;103179.97;;;-0.61;100.00
70015;BME280;57358;51.094;6.760;2023-02-10T05:34:59;103179.59;;;-0.46;100.00
70015;BME280;57358;51.094;6.760;2023-02-10T05:37:25;103169.50;;;-0.66;100.00
70015;BME280;57358;51.094;6.760;2023-02-10T05:39:52;103131.78;;;-0.88;100.00
70015;BME280;57358;51.094;6.760;2023-02-10T05:42:18;103098.13;;;-1.16;100.00
70015;BME280;57358;51.094;6.760;2023-02-10T05:44:45;103185.63;;;-0.71;100.00
70015;BME280;57358;51.094;6.760;2023-02-10T05:47:11;103187.94;;;-0.79;100.00
70015;BME280;57358;51.094;6.760;2023-02-10T05:49:38;103107.56;;;-1.41;100.00
70015;BME280;57358;51.094;6.760;2023-02-10T05:52:04;103157.38;;;-1.16;100.00
70015;BME280;57358;51.094;6.760;2023-02-10T05:54:31;103192.50;;;-0.96;100.00
70015;BME280;57358;51.094;6.760;2023-02-10T05:56:57;103194.91;;;-1.01;100.00
70015;BME280;57358;51.094;6.760;2023-02-10T05:59:52;103008.81;;;-2.14;100.00
70015;BME280;57358;51.094;6.760;2023-02-10T06:02:18;103195.50;;;-1.08;100.00
70015;BME280;57358;51.094;6.760;2023-02-10T06:04:45;103118.34;;;-1.51;100.00
70015;BME280;57358;51.094;6.760;2023-02-10T06:07:14;103173.69;;;-1.17;100.00
70015;BME280;57358;51.094;6.760;2023-02-10T06:10:08;103112.81;;;-1.62;100.00
70015;BME280;57358;51.094;6.760;2023-02-10T06:12:34;103132.81;;;-1.55;100.00
70015;BME280;57358;51.094;6.760;2023-02-10T06:15:00;102765.28;;;-3.77;100.00
70015;BME280;57358;51.094;6.760;2023-02-10T06:17:27;103162.28;;;-1.47;100.00
70015;BME280;57358;51.094;6.760;2023-02-10T06:20:21;103139.44;;;-1.62;100.00
70015;BME280;57358;51.094;6.760;2023-02-10T06:22:48;103115.53;;;-1.82;100.00
70015;BME280;57358;51.094;6.760;2023-02-10T06:25:14;103192.50;;;-1.43;100.00
70015;BME280;57358;51.094;6.760;2023-02-10T06:27:41;103199.13;;;-1.49;100.00
70015;BME280;57358;51.094;6.760;2023-02-10T06:30:08;103203.28;;;-1.53;100.00
70015;BME280;57358;51.094;6.760;2023-02-10T06:32:34;103200.59;;;-1.56;100.00
70015;BME280;57358;51.094;6.760;2023-02-10T06:35:01;103204.75;;;-1.59;100.00
70015;BME280;57358;51.094;6.760;2023-02-10T06:37:27;103208.13;;;-1.61;100.00
70015;BME280;57358;51.094;6.760;2023-02-10T06:39:54;103129.25;;;-2.04;100.00
70015;BME280;57358;51.094;6.760;2023-02-10T06:42:21;103205.38;;;-1.65;100.00
70015;BME280;57358;51.094;6.760;2023-02-10T06:45:15;103212.94;;;-1.70;100.00
70015;BME280;57358;51.094;6.760;2023-02-10T06:47:45;103212.69;;;-1.76;100.00
70015;BME280;57358;51.094;6.760;2023-02-10T06:50:12;103179.47;;;-1.92;100.00
70015;BME280;57358;51.094;6.760;2023-02-10T06:52:40;103218.84;;;-1.72;100.00
70015;BME280;57358;51.094;6.760;2023-02-10T06:55:07;103206.53;;;-1.79;100.00
70015;BME280;57358;51.094;6.760;2023-02-10T06:57:35;103171.38;;;-2.02;100.00
70015;BME280;57358;51.094;6.760;2023-02-10T07:00:04;103224.81;;;-1.73;100.00
70015;BME280;57358;51.094;6.760;2023-02-10T07:02:58;103154.56;;;-2.14;100.00
70015;BME280;57358;51.094;6.760;2023-02-10T07:05:25;103177.38;;;-2.01;100.00
70015;BME280;57358;51.094;6.760;2023-02-10T07:07:52;103223.00;;;-1.76;100.00
70015;BME280;57358;51.094;6.760;2023-02-10T07:10:20;103197.25;;;-1.97;100.00
70015;BME280;57358;51.094;6.760;2023-02-10T07:12:47;103213.44;;;-1.78;100.00
70015;BME280;57358;51.094;6.760;2023-02-10T07:15:13;102997.41;;;-3.08;100.00
70015;BME280;57358;51.094;6.760;2023-02-10T07:17:40;103214.19;;;-1.81;100.00
70015;BME280;57358;51.094;6.760;2023-02-10T07:20:34;103211.63;;;-1.81;100.00
70015;BME280;57358;51.094;6.760;2023-02-10T07:23:01;103183.78;;;-1.91;100.00
70015;BME280;57358;51.094;6.760;2023-02-10T07:25:27;103215.50;;;-1.70;100.00
70015;BME280;57358;51.094;6.760;2023-02-10T07:27:53;103154.84;;;-2.07;100.00
70015;BME280;57358;51.094;6.760;2023-02-10T07:30:47;103211.63;;;-1.58;100.00
70015;BME280;57358;51.094;6.760;2023-02-10T07:33:14;103130.44;;;-1.95;100.00
70015;BME280;57358;51.094;6.760;2023-02-10T07:35:41;103012.56;;;-2.72;100.00
70015;BME280;57358;51.094;6.760;2023-02-10T07:38:07;103180.03;;;-1.54;100.00
70015;BME280;57358;51.094;6.760;2023-02-10T07:40:34;103206.44;;;-1.37;100.00
70015;BME280;57358;51.094;6.760;2023-02-10T07:43:01;103204.91;;;-1.32;100.00
70015;BME280;57358;51.094;6.760;2023-02-10T07:45:27;103204.97;;;-1.31;100.00
70015;BME280;57358;51.094;6.760;2023-02-10T07:48:25;103206.91;;;-1.25;100.00
70015;BME280;57358;51.094;6.760;2023-02-10T07:50:52;103204.44;;;-1.22;100.00
70015;BME280;57358;51.094;6.760;2023-02-10T07:53:21;103207.13;;;-1.19;100.00
70015;BME280;57358;51.094;6.760;2023-02-10T07:55:48;102995.84;;;-2.39;100.00
70015;BME280;57358;51.094;6.760;2023-02-10T07:58:15;103206.53;;;-1.12;100.00
70015;BME280;57358;51.094;6.760;2023-02-10T08:00:42;103121.72;;;-1.54;100.00
70015;BME280;57358;51.094;6.760;2023-02-10T08:03:13;103210.34;;;-1.02;100.00
70015;BME280;57358;51.094;6.760;2023-02-10T08:05:40;103205.28;;;-0.99;100.00
70015;BME280;57358;51.094;6.760;2023-02-10T08:08:09;103138.53;;;-1.39;100.00
70015;BME280;57358;51.094;6.760;2023-02-10T08:10:39;103209.84;;;-0.92;100.00
70015;BME280;57358;51.094;6.760;2023-02-10T08:13:33;103132.78;;;-1.32;100.00
70015;BME280;57358;51.094;6.760;2023-02-10T08:16:03;103212.78;;;-0.81;100.00
70015;BME280;57358;51.094;6.760;2023-02-10T08:18:29;103130.53;;;-1.23;100.00
70015;BME280;57358;51.094;6.760;2023-02-10T08:20:59;103154.50;;;-1.02;100.00
70015;BME280;57358;51.094;6.760;2023-02-10T08:23:25;103208.38;;;-0.59;100.00
70015;BME280;57358;51.094;6.760;2023-02-10T08:25:51;103141.00;;;-0.94;100.00
70015;BME280;57358;51.094;6.760;2023-02-10T08:28:19;103093.03;;;-1.15;100.00
70015;BME280;57358;51.094;6.760;2023-02-10T08:30:45;103165.31;;;-0.62;100.00
70015;BME280;57358;51.094;6.760;2023-02-10T08:33:12;103208.69;;;-0.25;100.00
70015;BME280;57358;51.094;6.760;2023-02-10T08:35:40;103237.94;;;0.02;100.00
70015;BME280;57358;51.094;6.760;2023-02-10T08:38:07;103223.72;;;0.14;100.00
70015;BME280;57358;51.094;6.760;2023-02-10T08:40:37;103162.63;;;-0.12;100.00
70015;BME280;57358;51.094;6.760;2023-02-10T08:43:04;103219.25;;;0.37;100.00
70015;BME280;57358;51.094;6.760;2023-02-10T08:45:30;103172.94;;;0.15;100.00
70015;BME280;57358;51.094;6.760;2023-02-10T08:47:57;103154.13;;;0.19;100.00
70015;BME280;57358;51.094;6.760;2023-02-10T08:50:23;103185.19;;;0.49;100.00
70015;BME280;57358;51.094;6.760;2023-02-10T08:52:50;103232.97;;;0.92;100.00
70015;BME280;57358;51.094;6.760;2023-02-10T08:55:16;103166.69;;;0.66;100.00
70015;BME280;57358;51.094;6.760;2023-02-10T08:57:43;103146.94;;;0.68;100.00
70015;BME280;57358;51.094;6.760;2023-02-10T09:00:37;103157.78;;;0.85;100.00
70015;BME280;57358;51.094;6.760;2023-02-10T09:03:03;103014.97;;;0.28;100.00
70015;BME280;57358;51.094;6.760;2023-02-10T09:05:30;103227.41;;;1.75;100.00
70015;BME280;57358;51.094;6.760;2023-02-10T09:07:58;103125.34;;;1.29;100.00
70015;BME280;57358;51.094;6.760;2023-02-10T09:10:25;103169.34;;;1.66;100.00
70015;BME280;57358;51.094;6.760;2023-02-10T09:12:52;103062.22;;;1.23;100.00
70015;BME280;57358;51.094;6.760;2023-02-10T09:15:18;103234.09;;;2.37;100.00
70015;BME280;57358;51.094;6.760;2023-02-10T09:17:44;103181.06;;;2.23;100.00
70015;BME280;57358;51.094;6.760;2023-02-10T09:20:11;103227.97;;;2.74;100.00
70015;BME280;57358;51.094;6.760;2023-02-10T09:22:38;103228.50;;;2.99;100.00
70015;BME280;57358;51.094;6.760;2023-02-10T09:25:04;103245.31;;;3.19;100.00
70015;BME280;57358;51.094;6.760;2023-02-10T09:27:31;103160.00;;;2.89;100.00
70015;BME280;57358;51.094;6.760;2023-02-10T09:29:58;103166.19;;;2.97;100.00
70015;BME280;57358;51.094;6.760;2023-02-10T09:32:25;103249.44;;;3.54;100.00
70015;BME280;57358;51.094;6.760;2023-02-10T09:34:51;103234.00;;;3.62;100.00
70015;BME280;57358;51.094;6.760;2023-02-10T09:37:20;103231.31;;;3.58;100.00
70015;BME280;57358;51.094;6.760;2023-02-10T09:40:17;103175.44;;;3.30;100.00
70015;BME280;57358;51.094;6.760;2023-02-10T09:45:47;103204.31;;;3.47;100.00
70015;BME280;57358;51.094;6.760;2023-02-10T09:51:55;103291.03;;;4.06;100.00
70015;BME280;57358;51.094;6.760;2023-02-10T09:54:28;103315.47;;;4.17;100.00
70015;BME280;57358;51.094;6.760;2023-02-10T09:57:03;103135.94;;;3.48;100.00
70015;BME280;57358;51.094;6.760;2023-02-10T09:59:34;103200.53;;;3.80;100.00
70015;BME280;57358;51.094;6.760;2023-02-10T10:02:19;103292.59;;;4.49;100.00
70015;BME280;57358;51.094;6.760;2023-02-10T10:04:48;103296.94;;;4.52;100.00
70015;BME280;57358;51.094;6.760;2023-02-10T10:07:23;103301.59;;;4.74;100.00
70015;BME280;57358;51.094;6.760;2023-02-10T10:10:24;103247.44;;;4.46;100.00
70015;BME280;57358;51.094;6.760;2023-02-10T10:12:54;103222.13;;;4.32;100.00
70015;BME280;57358;51.094;6.760;2023-02-10T10:15:24;103300.78;;;4.78;100.00
70015;BME280;57358;51.094;6.760;2023-02-10T10:18:00;103300.75;;;4.75;100.00
70015;BME280;57358;51.094;6.760;2023-02-10T10:23:41;103296.03;;;5.12;100.00
70015;BME280;57358;51.094;6.760;2023-02-10T10:31:37;103313.06;;;5.60;100.00
70015;BME280;57358;51.094;6.760;2023-02-10T10:34:16;103246.69;;;5.23;100.00
70015;BME280;57358;51.094;6.760;2023-02-10T10:36:45;103309.00;;;5.89;100.00
70015;BME280;57358;51.094;6.760;2023-02-10T10:39:32;103311.00;;;6.13;100.00
70015;BME280;57358;51.094;6.760;2023-02-10T10:42:03;103309.44;;;6.32;99.73
70015;BME280;57358;51.094;6.760;2023-02-10T10:44:33;103297.31;;;6.40;98.40
70015;BME280;57358;51.094;6.760;2023-02-10T10:47:40;103289.56;;;6.52;96.96
70015;BME280;57358;51.094;6.760;2023-02-10T10:50:10;103266.91;;;6.45;94.17
70015;BME280;57358;51.094;6.760;2023-02-10T10:52:40;103199.66;;;5.96;92.46
70015;BME280;57358;51.094;6.760;2023-02-10T10:55:38;103268.72;;;6.54;92.27
70015;BME280;57358;51.094;6.760;2023-02-10T11:00:53;103202.66;;;6.63;90.65
70015;BME280;57358;51.094;6.760;2023-02-10T11:03:20;103246.28;;;6.90;89.39
70015;BME280;57358;51.094;6.760;2023-02-10T11:08:43;103240.34;;;7.34;88.54
70015;BME280;57358;51.094;6.760;2023-02-10T11:11:15;103216.78;;;7.25;85.70
70015;BME280;57358;51.094;6.760;2023-02-10T11:14:09;103177.53;;;6.86;84.07
70015;BME280;57358;51.094;6.760;2023-02-10T11:16:43;103149.59;;;6.61;85.62
70015;BME280;57358;51.094;6.760;2023-02-10T11:19:18;103202.84;;;7.21;85.41
70015;BME280;57358;51.094;6.760;2023-02-10T11:21:44;103199.41;;;7.47;84.23
70015;BME280;57358;51.094;6.760;2023-02-10T11:29:23;103157.59;;;7.73;79.85
70015;BME280;57358;51.094;6.760;2023-02-10T11:31:52;103148.00;;;7.92;79.71
70015;BME280;57358;51.094;6.760;2023-02-10T11:36:52;103131.38;;;8.11;78.07
70015;BME280;57358;51.094;6.760;2023-02-10T11:39:24;103135.72;;;8.22;77.12
70015;BME280;57358;51.094;6.760;2023-02-10T11:41:53;103060.88;;;7.81;75.42
70015;BME280;57358;51.094;6.760;2023-02-10T11:44:26;103058.25;;;7.87;74.11
70015;BME280;57358;51.094;6.760;2023-02-10T11:47:02;103058.28;;;7.76;73.45
70015;BME280;57358;51.094;6.760;2023-02-10T11:49:30;102997.31;;;7.55;73.23
70015;BME280;57358;51.094;6.760;2023-02-10T11:52:02;103017.38;;;7.53;73.55
70015;BME280;57358;51.094;6.760;2023-02-10T11:54:29;103029.53;;;7.73;74.38
70015;BME280;57358;51.094;6.760;2023-02-10T12:05:39;103018.06;;;8.12;72.30
70015;BME280;57358;51.094;6.760;2023-02-10T12:08:21;103045.06;;;8.13;73.66
70015;BME280;57358;51.094;6.760;2023-02-10T12:10:57;102985.88;;;7.96;73.35
70015;BME280;57358;51.094;6.760;2023-02-10T12:13:53;103021.56;;;8.05;73.28
70015;BME280;57358;51.094;6.760;2023-02-10T12:16:48;103038.13;;;8.09;73.62
70015;BME280;57358;51.094;6.760;2023-02-10T12:19:42;103029.41;;;8.04;74.84
70015;BME280;57358;51.094;6.760;2023-02-10T12:37:03;102924.63;;;8.31;70.83
70015;BME280;57358;51.094;6.760;2023-02-10T12:39:57;102925.50;;;8.33;70.40
70015;BME280;57358;51.094;6.760;2023-02-10T12:45:12;102877.47;;;8.47;69.68
70015;BME280;57358;51.094;6.760;2023-02-10T12:50:45;102832.22;;;8.32;67.34
70015;BME280;57358;51.094;6.760;2023-02-10T12:53:21;102847.84;;;8.40;68.19
70015;BME280;57358;51.094;6.760;2023-02-10T12:55:59;102811.22;;;8.42;67.76
70015;BME280;57358;51.094;6.760;2023-02-10T12:58:34;102824.16;;;8.58;67.52
70015;BME280;57358;51.094;6.760;2023-02-10T13:01:11;102804.16;;;8.50;67.11
70015;BME280;57358;51.094;6.760;2023-02-10T13:03:41;102806.91;;;8.34;67.00
70015;BME280;57358;51.094;6.760;2023-02-10T13:06:27;102754.81;;;8.07;67.41
70015;BME280;57358;51.094;6.760;2023-02-10T13:09:23;102833.03;;;8.42;68.60
70015;BME280;57358;51.094;6.760;2023-02-10T13:12:09;102831.28;;;8.41;69.11
70015;BME280;57358;51.094;6.760;2023-02-10T13:14:39;102733.25;;;7.80;68.41
70015;BME280;57358;51.094;6.760;2023-02-10T13:17:08;102756.75;;;7.83;69.47
70015;BME280;57358;51.094;6.760;2023-02-10T13:19:56;102838.28;;;8.36;69.26
70015;BME280;57358;51.094;6.760;2023-02-10T13:22:40;102780.06;;;8.11;68.11
70015;BME280;57358;51.094;6.760;2023-02-10T13:25:18;102797.28;;;8.35;67.58
70015;BME280;57358;51.094;6.760;2023-02-10T13:28:05;102775.50;;;8.36;66.71
70015;BME280;57358;51.094;6.760;2023-02-10T13:34:24;102683.25;;;8.17;63.53
70015;BME280;57358;51.094;6.760;2023-02-10T13:37:04;102639.06;;;7.89;62.88
70015;BME280;57358;51.094;6.760;2023-02-10T13:39:32;102626.03;;;7.88;62.90
70015;BME280;57358;51.094;6.760;2023-02-10T13:45:05;102662.25;;;8.22;63.17
70015;BME280;57358;51.094;6.760;2023-02-10T13:48:02;102656.09;;;8.30;63.00
70015;BME280;57358;51.094;6.760;2023-02-10T14:01:40;102633.03;;;8.63;61.79
70015;BME280;57358;51.094;6.760;2023-02-10T14:06:45;102619.34;;;8.43;62.42
70015;BME280;57358;51.094;6.760;2023-02-10T14:11:48;102631.50;;;8.47;62.87
70015;BME280;57358;51.094;6.760;2023-02-10T14:14:33;102633.97;;;8.59;62.48
70015;BME280;57358;51.094;6.760;2023-02-10T14:17:17;102617.47;;;8.54;62.11
70015;BME280;57358;51.094;6.760;2023-02-10T14:19:51;102630.41;;;8.63;62.70
70015;BME280;57358;51.094;6.760;2023-02-10T14:24:50;102631.09;;;8.77;62.36
70015;BME280;57358;51.094;6.760;2023-02-10T14:27:18;102616.50;;;8.61;62.89
70015;BME280;57358;51.094;6.760;2023-02-10T14:29:58;102454.75;;;7.56;62.86
70015;BME280;57358;51.094;6.760;2023-02-10T14:32:29;102568.22;;;8.14;63.25
70015;BME280;57358;51.094;6.760;2023-02-10T14:34:58;102621.03;;;8.48;63.60
70015;BME280;57358;51.094;6.760;2023-02-10T14:37:25;102621.03;;;8.48;63.71
70015;BME280;57358;51.094;6.760;2023-02-10T14:40:00;102614.13;;;8.41;63.93
70015;BME280;57358;51.094;6.760;2023-02-10T14:42:29;102560.72;;;7.83;64.37
70015;BME280;57358;51.094;6.760;2023-02-10T14:44:59;102627.47;;;8.18;64.22